Terminal Aerodrome Forecast
Issued by NWS Blacksburg, VA

Home | Current Version | Previous Version | Text Only | Print | Product List | Glossary On
Versions: 1 2 3 4 5 6 7 8 9 10 11 12 13 14 15 16 17 18 19 20 21 22 23 24 25 26 27 28 29
000
FTUS41 KRNK 211722
TAFBLF
TAF
KBLF 211722Z 2118/2218 30008G18KT P6SM -SHRA SCT030 BKN040
      TEMPO 2118/2121 4SM -TSRA OVC035CB
     FM212300 30005KT P6SM BKN120
     FM221300 27007KT P6SM BKN045=

USA.gov is the U.S. government's official web portal to all federal, state and local government web resources and services.